Time;durP1;ratioP1;P1;durP2;ratioP2;P2;SDS_P1;SDS_P2;PMS_P1;PMS_P2;Temp;Humidity;BMP_temperature;BMP_pressure;BME280_temperature;BME280_humidity;BME280_pressure;Samples;Min_cycle;Max_cycle;Signal;HPM_P1;HPM_P2
2024/04/16 00:00:46;;;;;;;4.15;1.50;;;;;;;;;;5509222;26;20014;-78
2024/04/16 00:03:20;;;;;;;6.55;3.38;;;;;;;;;;5537328;26;20707;-78
2024/04/16 00:05:55;;;;;;;8.93;3.45;;;;;;;;;;5507962;26;20020;-77
2024/04/16 00:08:34;;;;;;;1.90;1.00;;;;;;;;;;5500691;26;20020;-78
2024/04/16 00:11:12;;;;;;;4.53;1.10;;;;;;;;;;5521683;26;20002;-78
2024/04/16 00:13:47;;;;;;;7.65;3.13;;;;;;;;;;5498260;26;20016;-77
2024/04/16 00:16:34;;;;;;;8.45;3.20;;;;;;;;;;5499434;26;20013;-78
2024/04/16 00:19:10;;;;;;;1.20;0.73;;;;;;;;;;5519489;26;20009;-78
2024/04/16 00:21:46;;;;;;;2.72;1.38;;;;;;;;;;5513577;26;20020;-78
2024/04/16 00:24:21;;;;;;;6.57;2.75;;;;;;;;;;5517329;26;20008;-78
2024/04/16 00:26:58;;;;;;;8.00;1.35;;;;;;;;;;5523658;26;20005;-78
2024/04/16 00:29:33;;;;;;;1.13;0.90;;;;;;;;;;5498459;26;20013;-78
2024/04/16 00:32:12;;;;;;;6.93;2.80;;;;;;;;;;5519549;26;20006;-79
2024/04/16 00:34:51;;;;;;;;;;;;;;;;;;5519964;26;20020;-78
2024/04/16 00:37:23;;;;;;;10.88;2.15;;;;;;;;;;5534343;26;19926;-78
2024/04/16 00:40:01;;;;;;;8.75;2.67;;;;;;;;;;5502468;26;20017;-78
2024/04/16 00:42:44;;;;;;;5.43;1.65;;;;;;;;;;5474354;26;20461;-78
2024/04/16 00:45:21;;;;;;;9.23;3.20;;;;;;;;;;5503161;26;20030;-78
2024/04/16 00:47:55;;;;;;;6.55;2.42;;;;;;;;;;5489840;26;20005;-78
2024/04/16 00:50:34;;;;;;;2.50;0.90;;;;;;;;;;5480368;26;20018;-79
2024/04/16 00:53:09;;;;;;;2.95;1.60;;;;;;;;;;5493438;26;20006;-77
2024/04/16 00:55:50;;;;;;;2.70;1.75;;;;;;;;;;5484483;26;19999;-78
2024/04/16 00:58:30;;;;;;;8.30;2.33;;;;;;;;;;5484224;26;20033;-77
2024/04/16 01:01:08;;;;;;;4.72;1.70;;;;;;;;;;5474394;26;20017;-78
2024/04/16 01:03:43;;;;;;;6.45;2.90;;;;;;;;;;5501384;26;20002;-77
2024/04/16 01:06:21;;;;;;;10.13;2.30;;;;;;;;;;5481170;26;20023;-78
2024/04/16 01:08:53;;;;;;;3.13;1.52;;;;;;;;;;5496952;26;20006;-77
2024/04/16 01:11:31;;;;;;;2.50;0.95;;;;;;;;;;5461412;26;20021;-77
2024/04/16 01:14:06;;;;;;;7.43;2.90;;;;;;;;;;5483880;26;20050;-79
2024/04/16 01:16:41;;;;;;;2.25;1.20;;;;;;;;;;5470996;26;20010;-78
2024/04/16 01:19:16;;;;;;;3.30;1.30;;;;;;;;;;5509956;26;20068;-78
2024/04/16 01:21:54;;;;;;;7.03;3.00;;;;;;;;;;5464713;26;20014;-78
2024/04/16 01:24:32;;;;;;;3.20;1.15;;;;;;;;;;5443399;26;20010;-77
2024/04/16 01:27:05;;;;;;;2.72;1.80;;;;;;;;;;5477518;26;20054;-78
2024/04/16 01:29:40;;;;;;;7.05;2.83;;;;;;;;;;5457321;27;20339;-77
2024/04/16 01:32:18;;;;;;;3.00;1.60;;;;;;;;;;5499268;26;20050;-78
2024/04/16 01:34:54;;;;;;;3.15;1.52;;;;;;;;;;5475314;27;21169;-76
2024/04/16 01:37:28;;;;;;;4.55;1.80;;;;;;;;;;5488306;27;20064;-77
2024/04/16 01:40:07;;;;;;;9.65;3.85;;;;;;;;;;5484006;27;20006;-78
2024/04/16 01:42:39;;;;;;;5.20;2.78;;;;;;;;;;5467069;27;20053;-78
2024/04/16 01:45:14;;;;;;;4.85;1.67;;;;;;;;;;5457972;27;20005;-77
2024/04/16 01:47:46;;;;;;;2.25;1.20;;;;;;;;;;5507796;26;20500;-77
2024/04/16 01:50:23;;;;;;;2.05;1.25;;;;;;;;;;5488507;27;20005;-77
2024/04/16 01:52:57;;;;;;;5.22;1.33;;;;;;;;;;5486200;27;20018;-76
2024/04/16 01:55:38;;;;;;;7.80;2.20;;;;;;;;;;5487384;27;20009;-77
2024/04/16 01:58:12;;;;;;;3.90;1.50;;;;;;;;;;5483056;27;20006;-78
2024/04/16 02:00:49;;;;;;;1.65;1.27;;;;;;;;;;5469879;27;20018;-77
2024/04/16 02:03:25;;;;;;;5.75;2.88;;;;;;;;;;5485043;27;20021;-77
2024/04/16 02:05:59;;;;;;;4.88;1.48;;;;;;;;;;5488669;27;20005;-78
2024/04/16 02:08:34;;;;;;;6.35;2.72;;;;;;;;;;5483492;26;20017;-77
2024/04/16 02:11:12;;;;;;;2.90;1.35;;;;;;;;;;5467319;27;20006;-78
2024/04/16 02:13:44;;;;;;;4.88;2.45;;;;;;;;;;5487696;27;20003;-78
2024/04/16 02:16:22;;;;;;;3.30;1.15;;;;;;;;;;5492994;26;20658;-76
2024/04/16 02:18:56;;;;;;;7.07;2.40;;;;;;;;;;5475020;27;20009;-77
2024/04/16 02:21:34;;;;;;;2.85;1.05;;;;;;;;;;5488771;26;20021;-77
2024/04/16 02:24:09;;;;;;;4.38;1.75;;;;;;;;;;5485518;27;20289;-77
2024/04/16 02:26:48;;;;;;;5.32;1.48;;;;;;;;;;5504844;26;20461;-77
2024/04/16 02:29:20;;;;;;;8.15;3.10;;;;;;;;;;5481641;27;20033;-77
2024/04/16 02:31:58;;;;;;;6.10;2.95;;;;;;;;;;5489214;27;20017;-77
2024/04/16 02:34:31;;;;;;;8.70;3.40;;;;;;;;;;5462676;27;20069;-77
2024/04/16 02:37:07;;;;;;;3.92;1.23;;;;;;;;;;5491653;27;20561;-76
2024/04/16 02:39:39;;;;;;;4.43;1.52;;;;;;;;;;5492784;26;20399;-77
2024/04/16 02:42:17;;;;;;;1.02;0.98;;;;;;;;;;5500381;26;20011;-78
2024/04/16 02:44:49;;;;;;;8.10;2.10;;;;;;;;;;5478767;27;20021;-77
2024/04/16 02:47:31;;;;;;;6.72;3.00;;;;;;;;;;5481679;26;20033;-78
2024/04/16 02:50:03;;;;;;;5.05;2.03;;;;;;;;;;5485938;27;20010;-77
2024/04/16 02:52:42;;;;;;;5.28;2.45;;;;;;;;;;5495794;27;20088;-78
2024/04/16 02:55:21;;;;;;;7.75;2.70;;;;;;;;;;5495556;27;20009;-77
2024/04/16 02:57:58;;;;;;;5.22;1.38;;;;;;;;;;5483304;27;19999;-78
2024/04/16 03:00:31;;;;;;;4.63;2.13;;;;;;;;;;5510132;26;19991;-77
2024/04/16 03:03:06;;;;;;;9.90;1.95;;;;;;;;;;5497112;27;20002;-77
2024/04/16 03:05:41;;;;;;;4.10;1.50;;;;;;;;;;5490804;27;20030;-77
2024/04/16 03:08:18;;;;;;;5.18;2.42;;;;;;;;;;5486890;27;20345;-77
2024/04/16 03:10:53;;;;;;;1.33;0.65;;;;;;;;;;5480870;27;20024;-77
2024/04/16 03:13:30;;;;;;;8.55;3.75;;;;;;;;;;5480744;27;20009;-77
2024/04/16 03:16:06;;;;;;;2.47;1.48;;;;;;;;;;5491480;27;20006;-78
2024/04/16 03:18:47;;;;;;;6.00;2.28;;;;;;;;;;5462267;27;20008;-77
2024/04/16 03:21:21;;;;;;;7.20;2.50;;;;;;;;;;5470271;27;20088;-77
2024/04/16 03:24:03;;;;;;;5.68;2.22;;;;;;;;;;5482654;27;20496;-78
2024/04/16 03:26:39;;;;;;;5.57;1.88;;;;;;;;;;5506274;26;20009;-77
2024/04/16 03:29:20;;;;;;;3.60;1.58;;;;;;;;;;5489800;27;20361;-78
2024/04/16 03:31:54;;;;;;;2.45;1.52;;;;;;;;;;5491638;27;20001;-78
2024/04/16 03:34:28;;;;;;;5.00;1.80;;;;;;;;;;5478262;27;20018;-77
2024/04/16 03:37:05;;;;;;;2.58;1.17;;;;;;;;;;5460465;27;20006;-78
2024/04/16 03:39:41;;;;;;;5.72;2.17;;;;;;;;;;5487247;27;20010;-78
2024/04/16 03:42:22;;;;;;;4.88;1.42;;;;;;;;;;5493408;27;20006;-77
2024/04/16 03:45:01;;;;;;;1.95;1.30;;;;;;;;;;5484983;27;20017;-79
2024/04/16 03:47:33;;;;;;;1.23;1.13;;;;;;;;;;5486165;27;20011;-77
2024/04/16 03:50:12;;;;;;;2.63;0.98;;;;;;;;;;5486688;27;20007;-78
2024/04/16 03:52:47;;;;;;;4.63;1.20;;;;;;;;;;5514778;26;20012;-78
2024/04/16 03:55:22;;;;;;;3.13;2.17;;;;;;;;;;5483462;26;20361;-77
2024/04/16 03:58:02;;;;;;;1.98;1.40;;;;;;;;;;5472750;26;20423;-78
2024/04/16 04:03:35;;;;;;;4.60;0.93;;;;;;;;;;5472811;27;20014;-77
2024/04/16 04:06:10;;;;;;;4.03;2.67;;;;;;;;;;5480945;27;20011;-77
2024/04/16 04:08:45;;;;;;;4.43;2.60;;;;;;;;;;5482812;27;20002;-77
2024/04/16 04:11:22;;;;;;;2.83;1.55;;;;;;;;;;5470095;26;20083;-77
2024/04/16 04:13:54;;;;;;;2.53;1.67;;;;;;;;;;5476875;27;20081;-77
2024/04/16 04:16:32;;;;;;;3.53;2.22;;;;;;;;;;5507442;26;20007;-78
2024/04/16 04:19:07;;;;;;;2.70;2.13;;;;;;;;;;5474535;27;20005;-78
2024/04/16 04:21:41;;;;;;;1.95;1.35;;;;;;;;;;5480413;26;20018;-78
2024/04/16 04:24:17;;;;;;;4.32;3.40;;;;;;;;;;5468382;27;20017;-77
2024/04/16 04:27:07;;;;;;;5.93;3.85;;;;;;;;;;5472248;27;20065;-77
2024/04/16 04:29:39;;;;;;;6.22;2.03;;;;;;;;;;5476904;27;20010;-77
2024/04/16 04:32:17;;;;;;;2.70;1.67;;;;;;;;;;5481029;26;20041;-76
2024/04/16 04:34:49;;;;;;;5.03;1.45;;;;;;;;;;5466261;26;20006;-78
2024/04/16 04:37:29;;;;;;;7.22;3.00;;;;;;;;;;5457262;26;20001;-78
2024/04/16 04:40:03;;;;;;;5.80;3.63;;;;;;;;;;5476966;26;20041;-78
2024/04/16 04:42:38;;;;;;;;;;;;;;;;;;5461039;27;19999;-77
2024/04/16 04:45:16;;;;;;;2.92;2.20;;;;;;;;;;5491568;26;19927;-77
2024/04/16 04:47:58;;;;;;;2.28;1.70;;;;;;;;;;5482195;26;20030;-78
2024/04/16 04:50:35;;;;;;;1.20;1.10;;;;;;;;;;5489963;26;20014;-77
2024/04/16 04:53:10;;;;;;;5.05;3.00;;;;;;;;;;5489084;26;20006;-78
2024/04/16 04:55:48;;;;;;;5.85;1.30;;;;;;;;;;5500572;26;20010;-77
2024/04/16 04:58:25;;;;;;;3.45;1.77;;;;;;;;;;5470647;26;20023;-77
2024/04/16 05:00:59;;;;;;;1.65;1.35;;;;;;;;;;5512172;26;20026;-78
2024/04/16 05:03:39;;;;;;;6.47;3.30;;;;;;;;;;5473607;26;20005;-77
2024/04/16 05:06:13;;;;;;;2.78;2.03;;;;;;;;;;5493771;26;20028;-78
2024/04/16 05:08:48;;;;;;;2.17;1.60;;;;;;;;;;5497558;26;20010;-79
2024/04/16 05:11:22;;;;;;;3.35;1.33;;;;;;;;;;5484022;26;20018;-77
2024/04/16 05:14:02;;;;;;;3.58;2.97;;;;;;;;;;5484212;26;20049;-77
2024/04/16 05:16:38;;;;;;;2.50;2.10;;;;;;;;;;5457449;27;19998;-77
2024/04/16 05:19:17;;;;;;;7.07;1.67;;;;;;;;;;5448980;27;20019;-77
2024/04/16 05:21:49;;;;;;;1.70;1.35;;;;;;;;;;5465380;27;20062;-77
2024/04/16 05:24:27;;;;;;;5.63;3.10;;;;;;;;;;5468600;27;21534;-80
2024/04/16 05:27:00;;;;;;;1.85;1.42;;;;;;;;;;5490489;27;20013;-81
2024/04/16 05:29:34;;;;;;;5.13;3.38;;;;;;;;;;5489554;26;20704;-81
2024/04/16 05:32:11;;;;;;;1.02;1.02;;;;;;;;;;5464185;27;20053;-78
2024/04/16 05:34:51;;;;;;;2.53;1.38;;;;;;;;;;5481793;27;20026;-82
2024/04/16 05:37:23;;;;;;;2.50;1.38;;;;;;;;;;5487099;27;20006;-84
2024/04/16 05:40:06;;;;;;;7.03;4.68;;;;;;;;;;5454559;27;20484;-85
2024/04/16 05:42:38;;;;;;;2.60;1.85;;;;;;;;;;5470462;27;20006;-85
2024/04/16 05:45:13;;;;;;;3.63;2.55;;;;;;;;;;5471083;27;20010;-82
2024/04/16 05:47:45;;;;;;;7.30;6.60;;;;;;;;;;5458261;27;20053;-85
2024/04/16 05:50:25;;;;;;;9.60;7.93;;;;;;;;;;5472947;27;20024;-83
2024/04/16 05:52:58;;;;;;;7.65;3.58;;;;;;;;;;5471455;27;20500;-84
2024/04/16 05:55:33;;;;;;;4.13;3.58;;;;;;;;;;5474020;26;20024;-83
2024/04/16 05:58:10;;;;;;;5.70;3.75;;;;;;;;;;5467474;26;20444;-84
2024/04/16 06:00:48;;;;;;;11.45;8.77;;;;;;;;;;5457255;27;20020;-85
2024/04/16 06:03:20;;;;;;;4.28;2.55;;;;;;;;;;5450977;27;20043;-81
2024/04/16 06:05:58;;;;;;;7.50;3.90;;;;;;;;;;5487404;26;20045;-85
2024/04/16 06:08:35;;;;;;;10.05;8.15;;;;;;;;;;5453904;27;20472;-85
2024/04/16 06:11:10;;;;;;;8.05;4.57;;;;;;;;;;5483517;27;20010;-85
2024/04/16 06:13:42;;;;;;;11.18;8.23;;;;;;;;;;5437140;27;20005;-84
2024/04/16 06:16:21;;;;;;;5.70;3.58;;;;;;;;;;5465990;27;20010;-85
2024/04/16 06:18:55;;;;;;;9.65;8.20;;;;;;;;;;5468078;27;20460;-86
2024/04/16 06:21:33;;;;;;;8.60;7.85;;;;;;;;;;5477146;27;20451;-84
2024/04/16 06:24:05;;;;;;;5.63;3.15;;;;;;;;;;5475641;27;20021;-84
2024/04/16 06:26:44;;;;;;;5.30;3.65;;;;;;;;;;5477352;27;20009;-86
2024/04/16 06:29:16;;;;;;;9.23;7.68;;;;;;;;;;5465268;27;20017;-85
2024/04/16 06:31:55;;;;;;;9.32;7.63;;;;;;;;;;5446960;26;20369;-83
2024/04/16 06:34:29;;;;;;;10.02;7.03;;;;;;;;;;5444016;27;20010;-83
2024/04/16 06:37:06;;;;;;;7.20;6.50;;;;;;;;;;5440033;27;20080;-82
2024/04/16 06:39:42;;;;;;;4.50;3.35;;;;;;;;;;5495985;26;20021;-83
2024/04/16 06:42:20;;;;;;;9.93;6.93;;;;;;;;;;5473926;27;20088;-82
2024/04/16 06:44:54;;;;;;;4.15;3.75;;;;;;;;;;5480087;27;20001;-83
2024/04/16 06:47:28;;;;;;;2.88;2.42;;;;;;;;;;5493633;26;20011;-82
2024/04/16 06:50:03;;;;;;;6.60;5.20;;;;;;;;;;5446801;27;20020;-82
2024/04/16 06:52:40;;;;;;;3.33;3.03;;;;;;;;;;5458913;27;20029;-83
2024/04/16 06:55:16;;;;;;;6.63;3.58;;;;;;;;;;5456675;26;20809;-82
2024/04/16 06:57:50;;;;;;;3.45;3.03;;;;;;;;;;5441240;26;20025;-83
2024/04/16 07:00:28;;;;;;;3.13;2.65;;;;;;;;;;5469550;27;20013;-84
2024/04/16 07:03:03;;;;;;;2.60;2.40;;;;;;;;;;5466515;27;20005;-85
2024/04/16 07:05:37;;;;;;;2.13;1.67;;;;;;;;;;5471790;26;20391;-84
2024/04/16 07:08:15;;;;;;;1.75;1.65;;;;;;;;;;5456345;26;20017;-83
2024/04/16 07:10:47;;;;;;;3.53;2.00;;;;;;;;;;5447668;27;20016;-83
2024/04/16 07:13:30;;;;;;;2.53;1.15;;;;;;;;;;5469402;26;20084;-83
2024/04/16 07:16:02;;;;;;;2.78;1.58;;;;;;;;;;5467974;26;20066;-83
2024/04/16 07:18:40;;;;;;;1.90;1.67;;;;;;;;;;5474774;26;20038;-82
2024/04/16 07:21:16;;;;;;;3.10;1.10;;;;;;;;;;5462087;26;20415;-82
2024/04/16 07:23:55;;;;;;;1.55;1.45;;;;;;;;;;5467662;26;20467;-82
2024/04/16 07:26:28;;;;;;;1.30;1.20;;;;;;;;;;5479562;27;20005;-83
2024/04/16 07:29:05;;;;;;;3.03;2.70;;;;;;;;;;5472654;26;20319;-83
2024/04/16 07:31:37;;;;;;;2.85;2.58;;;;;;;;;;5469153;26;20855;-82
2024/04/16 07:34:21;;;;;;;2.60;2.35;;;;;;;;;;5465961;27;20005;-83
2024/04/16 07:36:59;;;;;;;2.10;1.17;;;;;;;;;;5466648;26;20002;-82
2024/04/16 07:39:38;;;;;;;0.88;0.88;;;;;;;;;;5471366;27;20010;-82
2024/04/16 07:42:10;;;;;;;1.10;1.10;;;;;;;;;;5465002;26;20014;-82
2024/04/16 07:44:44;;;;;;;1.02;0.95;;;;;;;;;;5469573;26;20002;-82
2024/04/16 07:47:16;;;;;;;1.33;1.05;;;;;;;;;;5475248;27;20028;-82
2024/04/16 07:49:51;;;;;;;2.35;2.05;;;;;;;;;;5442980;26;20011;-82
2024/04/16 07:52:29;;;;;;;2.55;1.10;;;;;;;;;;5447015;27;20045;-83
2024/04/16 07:55:08;;;;;;;2.60;2.00;;;;;;;;;;5480644;27;20056;-82
2024/04/16 07:57:45;;;;;;;1.00;0.93;;;;;;;;;;5469893;26;20010;-82
2024/04/16 08:00:20;;;;;;;5.32;2.53;;;;;;;;;;5466004;26;19998;-82
2024/04/16 08:02:54;;;;;;;4.28;1.60;;;;;;;;;;5473159;27;19998;-82
2024/04/16 08:05:31;;;;;;;3.10;1.60;;;;;;;;;;5472821;26;20686;-82
2024/04/16 08:08:03;;;;;;;3.97;2.47;;;;;;;;;;5495955;26;20014;-82
2024/04/16 08:11:14;;;;;;;4.88;2.88;;;;;;;;;;5461095;26;20004;-83
2024/04/16 08:13:50;;;;;;;0.60;0.60;;;;;;;;;;5447692;27;20784;-83
2024/04/16 08:16:29;;;;;;;1.35;1.25;;;;;;;;;;5467791;27;20018;-82
2024/04/16 08:19:03;;;;;;;2.40;1.80;;;;;;;;;;5468750;26;19997;-82
2024/04/16 08:21:39;;;;;;;4.70;3.43;;;;;;;;;;5445267;27;20003;-81
2024/04/16 08:24:15;;;;;;;3.50;2.92;;;;;;;;;;5495011;26;20009;-83
2024/04/16 08:26:54;;;;;;;4.53;3.70;;;;;;;;;;5461683;26;20007;-83
2024/04/16 08:29:26;;;;;;;4.05;3.55;;;;;;;;;;5476753;26;20025;-83
2024/04/16 08:32:02;;;;;;;2.05;1.70;;;;;;;;;;5451142;27;20105;-82
2024/04/16 08:34:43;;;;;;;6.15;4.07;;;;;;;;;;5459935;27;20014;-82
2024/04/16 08:37:21;;;;;;;2.28;1.33;;;;;;;;;;5485081;27;20465;-83
2024/04/16 08:39:53;;;;;;;1.52;1.27;;;;;;;;;;5474287;26;20025;-83
2024/04/16 08:42:33;;;;;;;6.47;3.45;;;;;;;;;;5469866;27;20046;-82
2024/04/16 08:45:10;;;;;;;7.63;3.83;;;;;;;;;;5476721;27;20404;-82
2024/04/16 08:47:47;;;;;;;4.18;1.80;;;;;;;;;;5505936;26;20006;-81
2024/04/16 08:50:20;;;;;;;8.20;4.00;;;;;;;;;;5480122;27;20033;-82
2024/04/16 08:52:55;;;;;;;8.05;4.82;;;;;;;;;;5472226;27;20011;-82
2024/04/16 08:55:27;;;;;;;5.72;3.20;;;;;;;;;;5479836;27;20019;-81
2024/04/16 08:58:06;;;;;;;2.53;1.13;;;;;;;;;;5469215;27;20010;-81
2024/04/16 09:00:39;;;;;;;3.00;1.25;;;;;;;;;;5484069;27;20061;-82
2024/04/16 09:03:16;;;;;;;3.58;3.03;;;;;;;;;;5476842;27;20014;-82
2024/04/16 09:05:48;;;;;;;1.95;1.27;;;;;;;;;;5472722;26;20021;-82
2024/04/16 09:08:30;;;;;;;7.10;2.60;;;;;;;;;;5478411;26;20022;-82
2024/04/16 09:11:06;;;;;;;7.05;3.08;;;;;;;;;;5481503;27;20018;-80
2024/04/16 09:13:45;;;;;;;1.63;1.08;;;;;;;;;;5467212;27;20006;-81
2024/04/16 09:16:21;;;;;;;5.53;2.88;;;;;;;;;;5488184;27;20511;-82
2024/04/16 09:19:08;;;;;;;6.63;3.00;;;;;;;;;;5470744;27;20088;-81
2024/04/16 09:21:40;;;;;;;1.08;0.70;;;;;;;;;;5481311;27;20002;-82
2024/04/16 09:24:22;;;;;;;0.80;0.80;;;;;;;;;;5479966;27;20455;-81
2024/04/16 09:26:59;;;;;;;5.22;2.28;;;;;;;;;;5475131;27;20088;-81
2024/04/16 09:29:37;;;;;;;4.45;1.90;;;;;;;;;;5479328;27;20010;-81
2024/04/16 09:32:10;;;;;;;5.68;2.13;;;;;;;;;;5455421;27;20006;-81
2024/04/16 09:34:46;;;;;;;3.28;1.70;;;;;;;;;;5470406;26;20027;-80
2024/04/16 09:37:23;;;;;;;1.33;0.57;;;;;;;;;;5498384;26;20010;-81
2024/04/16 09:39:57;;;;;;;3.33;2.05;;;;;;;;;;5481153;27;20005;-81
2024/04/16 09:42:36;;;;;;;2.30;1.40;;;;;;;;;;5455595;27;20467;-81
2024/04/16 09:45:12;;;;;;;1.95;0.88;;;;;;;;;;5480146;26;20020;-82
2024/04/16 09:47:49;;;;;;;6.50;1.63;;;;;;;;;;5474569;26;20004;-81
2024/04/16 09:50:27;;;;;;;3.20;1.50;;;;;;;;;;5518155;26;20068;-83
2024/04/16 09:53:09;;;;;;;2.60;1.20;;;;;;;;;;5484365;26;20484;-81
2024/04/16 09:55:46;;;;;;;4.82;1.80;;;;;;;;;;5513662;26;20020;-82
2024/04/16 09:58:21;;;;;;;5.65;1.67;;;;;;;;;;5508214;26;20020;-82
2024/04/16 10:00:57;;;;;;;2.85;1.40;;;;;;;;;;5513034;26;20017;-82
2024/04/16 10:03:32;;;;;;;2.45;1.33;;;;;;;;;;5489544;26;20818;-82
2024/04/16 10:06:05;;;;;;;3.83;1.45;;;;;;;;;;5507131;26;20012;-82
2024/04/16 10:08:39;;;;;;;4.20;1.50;;;;;;;;;;5495625;26;20001;-82
2024/04/16 10:11:13;;;;;;;2.58;1.08;;;;;;;;;;5508577;26;20012;-82
2024/04/16 10:14:03;;;;;;;3.38;1.10;;;;;;;;;;5516366;26;20000;-81
2024/04/16 10:16:41;;;;;;;2.63;1.13;;;;;;;;;;5511066;26;20006;-81
2024/04/16 10:19:16;;;;;;;2.58;1.20;;;;;;;;;;5502259;26;20052;-82
2024/04/16 10:21:49;;;;;;;1.67;1.10;;;;;;;;;;5509493;26;20005;-81
2024/04/16 10:24:24;;;;;;;4.30;1.30;;;;;;;;;;5515094;26;20005;-81
2024/04/16 10:26:59;;;;;;;2.92;0.80;;;;;;;;;;5445964;26;20009;-82
2024/04/16 10:29:39;;;;;;;2.15;1.10;;;;;;;;;;5499586;26;20017;-81
2024/04/16 10:32:19;;;;;;;1.25;1.00;;;;;;;;;;5521857;26;20005;-82
2024/04/16 10:35:01;;;;;;;1.13;0.70;;;;;;;;;;5500547;26;20032;-81
2024/04/16 10:37:33;;;;;;;1.73;0.70;;;;;;;;;;5507232;26;20467;-81
2024/04/16 10:40:11;;;;;;;2.90;0.82;;;;;;;;;;5499109;26;20410;-81
2024/04/16 10:42:47;;;;;;;0.77;0.70;;;;;;;;;;5504613;26;20414;-80
2024/04/16 10:45:23;;;;;;;1.55;0.60;;;;;;;;;;5502664;26;20001;-81
2024/04/16 10:48:02;;;;;;;0.55;0.50;;;;;;;;;;5508940;26;20019;-82
2024/04/16 10:50:42;;;;;;;1.67;0.68;;;;;;;;;;5509808;26;20005;-81
2024/04/16 10:53:15;;;;;;;0.73;0.60;;;;;;;;;;5514166;26;20005;-80
2024/04/16 10:55:53;;;;;;;0.70;0.70;;;;;;;;;;5505893;26;20014;-81
2024/04/16 10:58:25;;;;;;;1.02;0.68;;;;;;;;;;5514382;26;20013;-81
2024/04/16 11:01:01;;;;;;;0.73;0.73;;;;;;;;;;5499978;26;20005;-81
2024/04/16 11:03:38;;;;;;;0.60;0.60;;;;;;;;;;5508984;26;20001;-80
2024/04/16 11:06:13;;;;;;;0.57;0.57;;;;;;;;;;5487161;26;20032;-80
2024/04/16 11:08:46;;;;;;;0.93;0.82;;;;;;;;;;5502316;26;20027;-80
2024/04/16 11:11:25;;;;;;;5.57;1.08;;;;;;;;;;5500786;26;20009;-80
2024/04/16 11:13:59;;;;;;;1.05;0.70;;;;;;;;;;5517083;26;20647;-81
2024/04/16 11:16:34;;;;;;;1.23;0.90;;;;;;;;;;5496647;26;20017;-80
2024/04/16 11:19:14;;;;;;;7.15;4.00;;;;;;;;;;5497883;26;20495;-81
2024/04/16 11:21:50;;;;;;;1.35;0.75;;;;;;;;;;5508455;26;20046;-80
2024/04/16 11:24:26;;;;;;;0.68;0.68;;;;;;;;;;5507084;26;20087;-81
2024/04/16 11:27:04;;;;;;;0.50;0.50;;;;;;;;;;5530605;26;20005;-80
2024/04/16 11:29:44;;;;;;;1.15;0.90;;;;;;;;;;5504605;26;22271;-81
2024/04/16 11:32:22;;;;;;;0.93;0.68;;;;;;;;;;5518291;26;20012;-80
2024/04/16 11:34:58;;;;;;;0.60;0.60;;;;;;;;;;5510877;26;20013;-81
2024/04/16 11:37:33;;;;;;;0.60;0.60;;;;;;;;;;5522717;26;20420;-81
2024/04/16 11:40:09;;;;;;;0.60;0.60;;;;;;;;;;5518042;26;20008;-81
2024/04/16 11:42:48;;;;;;;1.27;0.52;;;;;;;;;;5526074;26;19997;-81
2024/04/16 11:45:26;;;;;;;0.85;0.70;;;;;;;;;;5503432;26;20004;-81
2024/04/16 11:48:01;;;;;;;1.00;0.90;;;;;;;;;;5490411;26;20448;-81
2024/04/16 11:50:39;;;;;;;0.88;0.60;;;;;;;;;;5549213;26;20015;-83
2024/04/16 11:53:17;;;;;;;0.70;0.70;;;;;;;;;;5518619;26;20023;-82
2024/04/16 11:55:51;;;;;;;0.60;0.60;;;;;;;;;;5501013;26;20009;-82
2024/04/16 11:58:30;;;;;;;0.68;0.57;;;;;;;;;;5498664;26;20002;-83
2024/04/16 12:01:05;;;;;;;1.10;0.70;;;;;;;;;;5496543;26;20009;-82
2024/04/16 12:03:42;;;;;;;0.68;0.60;;;;;;;;;;5521873;26;20013;-83
2024/04/16 12:06:19;;;;;;;1.10;0.70;;;;;;;;;;5526215;26;20044;-83
2024/04/16 12:08:54;;;;;;;0.80;0.50;;;;;;;;;;5524392;26;20001;-83
2024/04/16 12:11:30;;;;;;;0.63;0.63;;;;;;;;;;5517476;26;20019;-83
2024/04/16 12:14:04;;;;;;;1.27;0.50;;;;;;;;;;5530198;26;20449;-83
2024/04/16 12:16:45;;;;;;;0.73;0.70;;;;;;;;;;5553819;26;20002;-83
2024/04/16 12:19:20;;;;;;;0.95;0.75;;;;;;;;;;5519034;26;20028;-83
2024/04/16 12:21:58;;;;;;;0.85;0.80;;;;;;;;;;5521312;26;20001;-84
2024/04/16 12:24:36;;;;;;;1.60;0.70;;;;;;;;;;5533607;26;20027;-83
2024/04/16 12:27:14;;;;;;;0.70;0.70;;;;;;;;;;5527074;26;20002;-84
2024/04/16 12:29:49;;;;;;;1.40;1.20;;;;;;;;;;5534541;26;20005;-85
2024/04/16 12:32:26;;;;;;;0.85;0.70;;;;;;;;;;5525740;26;20083;-83
2024/04/16 12:35:02;;;;;;;0.70;0.70;;;;;;;;;;5531184;26;20033;-83
2024/04/16 12:37:37;;;;;;;0.65;0.65;;;;;;;;;;5531077;26;20002;-83
2024/04/16 12:40:14;;;;;;;1.15;0.70;;;;;;;;;;5527517;26;20006;-83
2024/04/16 12:42:50;;;;;;;0.80;0.80;;;;;;;;;;5521527;26;20002;-83
2024/04/16 12:45:24;;;;;;;0.85;0.82;;;;;;;;;;5522506;26;20005;-85
2024/04/16 12:47:59;;;;;;;2.60;1.00;;;;;;;;;;5530232;26;20759;-84
2024/04/16 12:50:38;;;;;;;1.42;1.00;;;;;;;;;;5539793;26;20016;-83
2024/04/16 12:53:15;;;;;;;0.90;0.90;;;;;;;;;;5521963;26;20025;-83
2024/04/16 12:55:53;;;;;;;0.93;0.80;;;;;;;;;;5517738;26;20056;-83
2024/04/16 12:58:25;;;;;;;1.58;0.90;;;;;;;;;;5535132;26;20032;-84
2024/04/16 13:01:01;;;;;;;0.80;0.80;;;;;;;;;;5518882;26;20013;-83
2024/04/16 13:03:34;;;;;;;0.80;0.80;;;;;;;;;;5521090;26;20514;-83
2024/04/16 13:06:09;;;;;;;1.17;0.93;;;;;;;;;;5527734;26;19997;-83
2024/04/16 13:08:47;;;;;;;0.93;0.90;;;;;;;;;;5533314;26;20013;-83
2024/04/16 13:11:25;;;;;;;1.30;0.75;;;;;;;;;;5530007;26;20000;-83
2024/04/16 13:13:57;;;;;;;0.60;0.60;;;;;;;;;;5563766;26;20004;-84
2024/04/16 13:16:31;;;;;;;0.70;0.70;;;;;;;;;;5541493;26;20021;-83
2024/04/16 13:19:04;;;;;;;;;;;;;;;;;;5521630;26;20042;-83
2024/04/16 13:21:39;;;;;;;0.65;0.65;;;;;;;;;;5517956;26;19926;-83
2024/04/16 13:24:17;;;;;;;0.90;0.80;;;;;;;;;;5528212;26;20008;-84
2024/04/16 13:26:52;;;;;;;0.77;0.70;;;;;;;;;;5524165;26;20087;-83
2024/04/16 13:29:26;;;;;;;0.80;0.80;;;;;;;;;;5523943;26;20060;-83
2024/04/16 13:32:00;;;;;;;0.60;0.60;;;;;;;;;;5494379;26;20443;-83
2024/04/16 13:34:35;;;;;;;1.15;1.05;;;;;;;;;;5522222;26;20045;-84
2024/04/16 13:37:13;;;;;;;0.93;0.70;;;;;;;;;;5527476;26;20013;-84
2024/04/16 13:39:48;;;;;;;1.00;0.90;;;;;;;;;;5520573;26;20016;-83
2024/04/16 13:42:27;;;;;;;1.45;1.10;;;;;;;;;;5516397;26;20060;-84
2024/04/16 13:45:04;;;;;;;0.90;0.80;;;;;;;;;;5528235;26;20016;-84
2024/04/16 13:47:38;;;;;;;0.80;0.80;;;;;;;;;;5520382;26;20020;-82
2024/04/16 13:50:15;;;;;;;0.57;0.57;;;;;;;;;;5518228;26;20009;-83
2024/04/16 13:52:54;;;;;;;0.95;0.85;;;;;;;;;;5518385;26;20010;-84
2024/04/16 13:55:31;;;;;;;1.75;0.73;;;;;;;;;;5516315;26;20034;-83
2024/04/16 13:58:06;;;;;;;0.75;0.60;;;;;;;;;;5531983;26;20005;-83
2024/04/16 14:00:43;;;;;;;1.02;0.70;;;;;;;;;;5528784;26;20052;-83
2024/04/16 14:03:19;;;;;;;0.70;0.70;;;;;;;;;;5524537;26;20030;-83
2024/04/16 14:05:51;;;;;;;1.05;0.80;;;;;;;;;;5513894;26;20639;-84
2024/04/16 14:08:30;;;;;;;1.30;1.00;;;;;;;;;;5551276;26;20040;-84
2024/04/16 14:11:08;;;;;;;0.85;0.70;;;;;;;;;;5515279;26;20023;-83
2024/04/16 14:13:40;;;;;;;0.98;0.88;;;;;;;;;;5513809;26;20006;-83
2024/04/16 14:16:14;;;;;;;0.63;0.63;;;;;;;;;;5521625;26;20008;-83
2024/04/16 14:18:52;;;;;;;0.60;0.50;;;;;;;;;;5522297;26;20061;-84
2024/04/16 14:21:31;;;;;;;0.95;0.70;;;;;;;;;;5452442;26;20002;-83
2024/04/16 14:24:11;;;;;;;0.60;0.60;;;;;;;;;;5499951;26;20598;-84
2024/04/16 14:26:50;;;;;;;0.60;0.60;;;;;;;;;;5476513;27;20002;-83
2024/04/16 14:29:26;;;;;;;0.80;0.60;;;;;;;;;;5500908;26;19989;-83
2024/04/16 14:32:05;;;;;;;0.80;0.80;;;;;;;;;;5499127;26;20005;-82
2024/04/16 14:34:41;;;;;;;0.82;0.60;;;;;;;;;;5491919;26;20084;-83
2024/04/16 14:37:15;;;;;;;0.73;0.70;;;;;;;;;;5518781;26;20060;-82
2024/04/16 14:39:51;;;;;;;1.95;0.90;;;;;;;;;;5508535;26;20049;-82
2024/04/16 14:42:32;;;;;;;0.60;0.60;;;;;;;;;;5492554;26;20025;-83
2024/04/16 14:45:08;;;;;;;0.70;0.70;;;;;;;;;;5498647;26;20056;-82
2024/04/16 14:47:47;;;;;;;1.13;0.82;;;;;;;;;;5500697;26;20045;-82
2024/04/16 14:50:20;;;;;;;0.70;0.70;;;;;;;;;;5497607;26;20044;-83
2024/04/16 14:52:55;;;;;;;0.70;0.60;;;;;;;;;;5489875;26;20004;-83
2024/04/16 14:55:28;;;;;;;1.30;0.90;;;;;;;;;;5476825;27;20180;-85
2024/04/16 14:58:07;;;;;;;0.77;0.77;;;;;;;;;;5478364;26;20068;-82
2024/04/16 15:00:40;;;;;;;0.60;0.60;;;;;;;;;;5447936;27;20053;-83
2024/04/16 15:03:17;;;;;;;0.70;0.70;;;;;;;;;;5499775;26;20016;-83
2024/04/16 15:05:58;;;;;;;0.70;0.63;;;;;;;;;;5492999;26;20016;-82
2024/04/16 15:08:40;;;;;;;1.02;0.60;;;;;;;;;;5504229;26;20016;-82
2024/04/16 15:11:12;;;;;;;1.50;0.40;;;;;;;;;;5495678;26;20052;-83
2024/04/16 15:13:51;;;;;;;0.60;0.60;;;;;;;;;;5487773;26;19991;-83
2024/04/16 15:16:25;;;;;;;1.27;0.63;;;;;;;;;;5494274;26;20010;-84
2024/04/16 15:19:04;;;;;;;2.15;0.80;;;;;;;;;;5494666;26;20012;-83
2024/04/16 15:21:43;;;;;;;0.47;0.40;;;;;;;;;;5498471;26;20002;-82
2024/04/16 15:24:17;;;;;;;0.47;0.47;;;;;;;;;;5494033;26;20001;-84
2024/04/16 15:26:53;;;;;;;0.57;0.50;;;;;;;;;;5484388;26;20054;-83
2024/04/16 15:29:31;;;;;;;0.55;0.50;;;;;;;;;;5515471;26;20005;-82
2024/04/16 15:32:04;;;;;;;0.95;0.70;;;;;;;;;;5527522;26;20013;-83
2024/04/16 15:34:40;;;;;;;0.82;0.77;;;;;;;;;;5485724;26;19998;-84
2024/04/16 15:37:12;;;;;;;0.68;0.47;;;;;;;;;;5508775;26;20020;-82
2024/04/16 15:39:52;;;;;;;0.70;0.50;;;;;;;;;;5498127;21;20381;-84